Chalk Hill, PA (15421)

7:38 AM EDT on August 26, 2016 (GMT -0400)
Uniontown | | Change Station

Elev 1102 ft 39.90 °N, 79.73 °W | Updated 1 minute ago

Mostly Cloudy
Mostly Cloudy
74.1 °F
Feels Like 70 °F
N
2.3
Wind Variable Wind from West
Gusts 2.3 mph

Today
High -- | Low -- °F
--% Chance of Precip.
Yesterday
High -- | Low -- °F
Precip. -- in
Pressure 30.12 in
Visibility 7.0 miles
Clouds Mostly Cloudy 3700 ft
Mostly Cloudy 4300 ft
Heat Index 70 °F
Dew Point 74 °F
Humidity 99%
Rainfall 0.00 in
Snow Depth Not available.
6:41 AM 7:58 PM
Waning Crescent, 35% visible
METAR KMGW 261053Z 00000KT 7SM BKN037 BKN043 23/22 A3016 RMK AO2 SLP200 T02330222
Pressure 30.12 in
Visibility 7.0 miles
Clouds Mostly Cloudy 3700 ft
Mostly Cloudy 4300 ft
Heat Index 70 °F
Dew Point 74 °F
Humidity 99%
Rainfall 0.00 in
Snow Depth Not available.
6:41 AM 7:58 PM
Waning Crescent, 35% visible
METAR KMGW 261053Z 00000KT 7SM BKN037 BKN043 23/22 A3016 RMK AO2 SLP200 T02330222

10-Day Weather Forecast

Almanac

Astronomy

Aug. 26, 2016 Rise Set
Actual Time
Civil Twilight
Nautical Twilight
Astronomical Twilight
Moon
Length of Visible Light
Length of Day
Tomorrow will be .
, % of the Moon is Illuminated

Today's Extremes

State Highs State Lows

Community

WunderPhotos

Upload Photos

1,935,071 photos uploaded!

WunderBlog® & News

Nearby

Air Quality

  Air Quality AQ Index Pollutant
Not available.

Snow Depth

Station Depth Elevation

Earthquake Activity

City Distance Mag. Time & Date
Minimum magnitude displayed is 2.5.

Coastal Water Temperatures

Place Temperature

Stations

Nearby Weather Stations

Station Location Temp. Windchill Dew Point Humidity Wind Precip. Elev Updated Type
                   

Watches & Warnings

There are currently no watches in effect.